Time;durP1;ratioP1;P1;durP2;ratioP2;P2;SDS_P1;SDS_P2;PMS_P1;PMS_P2;Temp;Humidity;BMP_temperature;BMP_pressure;BME280_temperature;BME280_humidity;BME280_pressure;Samples;Min_cycle;Max_cycle;Signal;HPM_P1;HPM_P2
2021/01/14 00:00:25;;;;;;;9.30;2.30;;;2.90;99.90;;;;;;5055267;28;20978;-77
2021/01/14 00:02:51;;;;;;;6.93;2.80;;;2.80;99.90;;;;;;5046305;28;20390;-77
2021/01/14 00:05:16;;;;;;;5.03;2.30;;;2.70;99.90;;;;;;5055725;28;20840;-77
2021/01/14 00:07:42;;;;;;;5.80;1.93;;;2.60;99.90;;;;;;5049898;28;20256;-77
2021/01/14 00:10:10;;;;;;;6.20;1.63;;;2.50;99.90;;;;;;5048509;28;20861;-77
2021/01/14 00:12:37;;;;;;;8.30;3.43;;;2.50;99.90;;;;;;5050995;28;20590;-77
2021/01/14 00:15:04;;;;;;;6.73;1.80;;;2.50;99.90;;;;;;5047008;28;20526;-76
2021/01/14 00:17:31;;;;;;;2.13;1.77;;;2.50;99.90;;;;;;5050550;28;20399;-77
2021/01/14 00:19:57;;;;;;;4.33;1.73;;;2.50;99.90;;;;;;5031557;28;20414;-78
2021/01/14 00:22:22;;;;;;;7.60;1.73;;;2.50;99.90;;;;;;5013938;28;20420;-78
2021/01/14 00:24:48;;;;;;;3.80;2.00;;;2.60;99.90;;;;;;5060471;28;20230;-77
2021/01/14 00:27:14;;;;;;;13.63;2.60;;;2.60;99.90;;;;;;5035149;28;20207;-77
2021/01/14 00:29:39;;;;;;;5.57;1.93;;;2.80;99.90;;;;;;5047860;28;20436;-77
2021/01/14 00:32:05;;;;;;;10.10;2.33;;;2.80;99.90;;;;;;5066884;28;20234;-77
2021/01/14 00:34:32;;;;;;;10.07;2.30;;;2.70;99.90;;;;;;5047382;28;20229;-77
2021/01/14 00:39:41;;;;;;;5.43;2.03;;;2.60;99.90;;;;;;5053922;28;20920;-77
2021/01/14 00:42:07;;;;;;;11.20;2.83;;;2.40;99.90;;;;;;5046612;28;20429;-77
2021/01/14 00:44:33;;;;;;;11.63;2.83;;;2.10;99.90;;;;;;5051731;28;20285;-77
2021/01/14 00:46:59;;;;;;;10.47;1.97;;;1.90;99.90;;;;;;5033975;28;20405;-77
2021/01/14 00:49:25;;;;;;;3.17;1.47;;;1.90;99.90;;;;;;5039774;28;20210;-77
2021/01/14 00:51:51;;;;;;;5.97;1.73;;;1.90;99.90;;;;;;5055909;28;20900;-77
2021/01/14 00:54:17;;;;;;;6.70;2.00;;;1.80;99.90;;;;;;5051737;28;20452;-77
2021/01/14 00:56:43;;;;;;;4.60;1.67;;;1.90;99.90;;;;;;5044205;28;20415;-77
2021/01/14 00:59:09;;;;;;;3.27;1.67;;;1.80;99.90;;;;;;5049447;28;20440;-77
2021/01/14 01:01:39;;;;;;;6.10;1.60;;;1.70;99.90;;;;;;5035092;28;20435;-77
2021/01/14 01:04:04;;;;;;;6.07;2.27;;;1.70;99.90;;;;;;5051425;28;20205;-77
2021/01/14 01:06:35;;;;;;;2.37;1.80;;;1.60;99.90;;;;;;5020543;28;20438;-77
2021/01/14 01:09:03;;;;;;;2.77;1.50;;;1.60;99.90;;;;;;5060328;28;20230;-77
2021/01/14 01:11:29;;;;;;;7.00;2.50;;;1.70;99.90;;;;;;5051610;28;20527;-77
2021/01/14 01:13:56;;;;;;;6.50;2.40;;;1.70;99.90;;;;;;5049314;28;20420;-77
2021/01/14 01:16:22;;;;;;;14.33;2.07;;;1.70;99.90;;;;;;5050834;28;20935;-77
2021/01/14 01:18:48;;;;;;;7.67;2.20;;;1.70;99.90;;;;;;5064718;28;20494;-77
2021/01/14 01:21:14;;;;;;;7.10;2.37;;;1.80;99.90;;;;;;5050188;28;20518;-77
2021/01/14 01:23:41;;;;;;;5.93;1.50;;;1.80;99.90;;;;;;5053549;28;20415;-77
2021/01/14 01:26:07;;;;;;;2.60;1.90;;;1.80;99.90;;;;;;5068689;28;20387;-77
2021/01/14 01:28:33;;;;;;;3.33;1.97;;;1.90;99.90;;;;;;5040567;28;20950;-78
2021/01/14 01:30:59;;;;;;;2.97;1.90;;;2.10;99.90;;;;;;5054996;28;20939;-77
2021/01/14 01:33:28;;;;;;;2.40;1.17;;;2.10;99.90;;;;;;5041359;28;20915;-77
2021/01/14 01:35:55;;;;;;;5.43;1.50;;;2.10;99.90;;;;;;5051791;28;20507;-77
2021/01/14 01:38:21;;;;;;;3.70;1.50;;;2.00;99.90;;;;;;5045788;28;20471;-77
2021/01/14 01:41:01;;;;;;;7.80;2.10;;;2.00;99.90;;;;;;5034293;28;20447;-77
2021/01/14 01:43:27;;;;;;;4.90;2.27;;;1.90;99.90;;;;;;5045420;28;20483;-77
2021/01/14 01:45:53;;;;;;;14.43;2.07;;;1.90;99.90;;;;;;5036553;28;20411;-77
2021/01/14 01:48:20;;;;;;;10.47;2.17;;;1.90;99.90;;;;;;5033563;28;20507;-77
2021/01/14 01:50:48;;;;;;;7.60;1.80;;;1.90;99.90;;;;;;5062621;28;20421;-77
2021/01/14 01:53:14;;;;;;;9.57;2.10;;;2.00;99.90;;;;;;5054122;28;20391;-77
2021/01/14 01:55:43;;;;;;;5.00;1.57;;;1.90;99.90;;;;;;5051645;28;20428;-77
2021/01/14 01:58:10;;;;;;;7.60;2.00;;;1.90;99.90;;;;;;5051726;28;20375;-77
2021/01/14 02:00:35;;;;;;;13.90;2.40;;;1.90;99.90;;;;;;5051845;28;20424;-77
2021/01/14 02:03:01;;;;;;;7.70;2.57;;;1.90;99.90;;;;;;5052866;28;20514;-77
2021/01/14 02:05:27;;;;;;;8.00;2.23;;;1.90;99.90;;;;;;5051267;28;20219;-78
2021/01/14 02:08:02;;;;;;;14.83;2.80;;;1.90;99.90;;;;;;5053718;28;20206;-77
2021/01/14 02:10:32;;;;;;;6.93;2.33;;;2.00;99.90;;;;;;5051801;28;20650;-78
2021/01/14 02:13:16;;;;;;;4.73;1.80;;;2.00;99.90;;;;;;5056897;23;20427;-77
2021/01/14 02:15:43;;;;;;;2.83;2.00;;;2.00;99.90;;;;;;5037816;28;20484;-77
2021/01/14 02:18:09;;;;;;;3.97;2.03;;;2.00;99.90;;;;;;5019018;28;20457;-77
2021/01/14 02:20:36;;;;;;;3.90;2.43;;;2.00;99.90;;;;;;5015984;28;20497;-77
2021/01/14 02:23:32;;;;;;;4.07;1.90;;;1.90;99.90;;;;;;5019790;28;20942;-77
2021/01/14 02:26:06;;;;;;;7.03;3.23;;;2.00;99.90;;;;;;5020113;28;20986;-77
2021/01/14 02:28:34;;;;;;;3.57;1.83;;;2.00;99.90;;;;;;5030884;28;20899;-77
2021/01/14 02:31:01;;;;;;;8.00;2.13;;;1.90;99.90;;;;;;5013845;28;20388;-77
2021/01/14 02:33:27;;;;;;;7.40;2.57;;;1.80;99.90;;;;;;5012972;28;20422;-77
2021/01/14 02:35:52;;;;;;;5.93;2.33;;;2.00;99.90;;;;;;5046386;28;20435;-76
2021/01/14 02:38:18;;;;;;;5.50;1.80;;;1.80;99.90;;;;;;5029836;28;20300;-78
2021/01/14 02:40:43;;;;;;;5.87;1.97;;;1.90;99.90;;;;;;5017646;28;20302;-77
2021/01/14 02:43:09;;;;;;;4.23;2.10;;;1.90;99.90;;;;;;5012843;28;20204;-76
2021/01/14 02:45:35;;;;;;;8.07;3.23;;;1.90;99.90;;;;;;5046704;28;20217;-77
2021/01/14 02:48:03;;;;;;;4.13;1.90;;;1.90;99.90;;;;;;5046796;28;20211;-77
2021/01/14 02:50:32;;;;;;;3.40;1.73;;;2.00;99.90;;;;;;5031598;28;20581;-77
2021/01/14 02:52:59;;;;;;;13.87;2.57;;;2.00;99.90;;;;;;4996342;28;20404;-77
2021/01/14 02:55:27;;;;;;;4.30;2.10;;;1.90;99.90;;;;;;5048197;28;20418;-77
2021/01/14 02:57:53;;;;;;;6.40;2.17;;;1.90;99.90;;;;;;5022595;28;20455;-78
2021/01/14 03:00:19;;;;;;;5.87;2.17;;;2.00;99.90;;;;;;5031644;28;20461;-77
2021/01/14 03:02:45;;;;;;;6.80;2.30;;;2.10;99.90;;;;;;5046432;28;20437;-77
2021/01/14 03:05:10;;;;;;;9.60;2.47;;;2.00;99.90;;;;;;5014333;28;20764;-77
2021/01/14 03:07:36;;;;;;;4.77;2.00;;;2.00;99.90;;;;;;5007753;28;20343;-77
2021/01/14 03:10:02;;;;;;;7.50;2.50;;;1.90;99.90;;;;;;5021707;28;20655;-77
2021/01/14 03:12:28;;;;;;;3.40;2.23;;;1.80;99.90;;;;;;5026177;28;20216;-77
2021/01/14 03:14:54;;;;;;;2.30;2.00;;;1.80;99.90;;;;;;5033939;28;20403;-78
2021/01/14 03:17:20;;;;;;;5.10;1.73;;;1.70;99.90;;;;;;5012765;28;20825;-77
2021/01/14 03:19:45;;;;;;;3.80;2.20;;;1.60;99.90;;;;;;5033087;28;20207;-77
2021/01/14 03:22:11;;;;;;;15.20;2.40;;;1.60;99.90;;;;;;5029442;28;20678;-77
2021/01/14 03:24:39;;;;;;;9.73;2.73;;;1.60;99.90;;;;;;5030804;28;20564;-77
2021/01/14 03:27:05;;;;;;;10.47;2.00;;;1.50;99.90;;;;;;5026756;28;20204;-77
2021/01/14 03:29:31;;;;;;;4.37;2.23;;;1.40;99.90;;;;;;5038153;28;20914;-77
2021/01/14 03:32:02;;;;;;;6.87;2.37;;;1.50;99.90;;;;;;5010269;28;20433;-77
2021/01/14 03:34:29;;;;;;;2.10;1.80;;;1.40;99.90;;;;;;5031123;28;20435;-77
2021/01/14 03:36:58;;;;;;;6.30;2.30;;;1.50;99.90;;;;;;5019015;28;20469;-78
2021/01/14 03:39:27;;;;;;;4.53;2.20;;;1.50;99.90;;;;;;5043496;28;21020;-77
2021/01/14 03:41:54;;;;;;;2.73;1.70;;;1.50;99.90;;;;;;5031812;28;20437;-78
2021/01/14 03:44:20;;;;;;;11.30;2.50;;;1.40;99.90;;;;;;5015191;28;20377;-77
2021/01/14 03:46:47;;;;;;;6.03;2.20;;;1.50;99.90;;;;;;5030430;28;20407;-77
2021/01/14 03:49:13;;;;;;;5.77;2.23;;;1.40;99.90;;;;;;5025949;28;20388;-77
2021/01/14 03:51:39;;;;;;;4.90;2.60;;;1.30;99.90;;;;;;5016047;28;20410;-77
2021/01/14 03:54:05;;;;;;;4.97;2.07;;;1.30;99.90;;;;;;5025977;28;20425;-77
2021/01/14 03:56:38;;;;;;;7.00;3.60;;;1.30;99.90;;;;;;5031173;28;20220;-77
2021/01/14 03:59:05;;;;;;;4.90;2.07;;;1.20;99.90;;;;;;5036644;28;20426;-77
2021/01/14 04:01:34;;;;;;;5.77;2.17;;;1.20;99.90;;;;;;5026260;28;20468;-77
2021/01/14 04:04:00;;;;;;;5.83;2.87;;;1.20;99.90;;;;;;5029353;28;20804;-77
2021/01/14 04:06:35;;;;;;;5.30;2.13;;;1.20;99.90;;;;;;5016274;28;20402;-78
2021/01/14 04:09:02;;;;;;;6.47;2.33;;;1.10;99.90;;;;;;5038035;28;20382;-78
2021/01/14 04:11:28;;;;;;;8.30;2.20;;;1.00;99.90;;;;;;5044008;28;20898;-78
2021/01/14 04:13:54;;;;;;;8.90;2.20;;;1.00;99.90;;;;;;5018122;28;20507;-78
2021/01/14 04:16:20;;;;;;;4.47;2.17;;;1.10;99.90;;;;;;5019075;28;20429;-78
2021/01/14 04:18:46;;;;;;;6.03;2.47;;;1.10;99.90;;;;;;5032695;28;20220;-78
2021/01/14 04:21:15;;;;;;;5.80;2.30;;;1.20;99.90;;;;;;5036423;28;20230;-77
2021/01/14 04:23:42;;;;;;;10.70;2.20;;;1.20;99.90;;;;;;5028204;28;20210;-77
2021/01/14 04:26:08;;;;;;;2.03;1.63;;;1.20;99.90;;;;;;5029261;28;20540;-77
2021/01/14 04:28:34;;;;;;;7.63;2.27;;;1.20;99.90;;;;;;5041132;28;20556;-77
2021/01/14 04:31:00;;;;;;;7.63;3.10;;;1.20;99.90;;;;;;5034099;28;20257;-77
2021/01/14 04:33:26;;;;;;;8.50;2.23;;;1.10;99.90;;;;;;5018896;28;20420;-77
2021/01/14 04:35:53;;;;;;;4.37;1.97;;;1.20;99.90;;;;;;5033927;28;20583;-77
2021/01/14 04:38:21;;;;;;;3.80;2.00;;;1.20;99.90;;;;;;5032535;28;20686;-77
2021/01/14 04:41:00;;;;;;;6.13;2.00;;;1.20;99.90;;;;;;5048923;28;20982;-77
2021/01/14 04:43:28;;;;;;;5.80;2.13;;;1.20;99.90;;;;;;5035560;28;20421;-77
2021/01/14 04:46:03;;;;;;;3.33;1.63;;;1.20;99.90;;;;;;5019250;28;20391;-77
2021/01/14 04:48:38;;;;;;;4.37;1.90;;;1.20;99.90;;;;;;5023277;28;20762;-77
2021/01/14 04:51:18;;;;;;;4.60;2.00;;;1.20;99.90;;;;;;5032135;28;20421;-77
2021/01/14 04:53:48;;;;;;;7.77;2.30;;;1.10;99.90;;;;;;5015694;28;20485;-78
2021/01/14 04:56:16;;;;;;;6.73;2.27;;;1.10;99.90;;;;;;5023910;28;20426;-77
2021/01/14 04:58:46;;;;;;;4.63;2.23;;;1.10;99.90;;;;;;5023097;28;20862;-77
2021/01/14 05:01:19;;;;;;;4.20;2.90;;;1.10;99.90;;;;;;5034738;28;20495;-77
2021/01/14 05:03:47;;;;;;;5.73;2.30;;;1.00;99.90;;;;;;5035132;28;20418;-77
2021/01/14 05:06:17;;;;;;;2.60;2.20;;;1.00;99.90;;;;;;5029270;28;20516;-77
2021/01/14 05:08:45;;;;;;;7.80;2.60;;;1.00;99.90;;;;;;5025332;28;20951;-77
2021/01/14 05:11:17;;;;;;;6.00;2.20;;;0.90;99.90;;;;;;5032868;28;20981;-78
2021/01/14 05:13:46;;;;;;;6.07;2.50;;;1.00;99.90;;;;;;5032661;28;20449;-77
2021/01/14 05:16:13;;;;;;;9.60;3.20;;;1.00;99.90;;;;;;5031929;28;20407;-77
2021/01/14 05:18:40;;;;;;;5.30;2.87;;;1.00;99.90;;;;;;5043977;28;20495;-77
2021/01/14 05:21:06;;;;;;;8.10;2.90;;;1.00;99.90;;;;;;5031391;28;21374;-77
2021/01/14 05:23:32;;;;;;;3.43;2.40;;;0.90;99.90;;;;;;5015759;28;20464;-77
2021/01/14 05:25:59;;;;;;;5.87;3.30;;;0.90;99.90;;;;;;5035582;28;20877;-78
2021/01/14 05:28:26;;;;;;;6.80;2.73;;;0.80;99.90;;;;;;5012354;28;20388;-78
2021/01/14 05:30:52;;;;;;;5.80;2.10;;;0.80;99.90;;;;;;5035179;28;20928;-78
2021/01/14 05:33:20;;;;;;;10.37;2.67;;;0.90;99.90;;;;;;5034446;28;20825;-77
2021/01/14 05:35:50;;;;;;;8.87;3.30;;;0.90;99.90;;;;;;5033106;28;20429;-77
2021/01/14 05:38:30;;;;;;;4.10;2.23;;;0.90;99.90;;;;;;5008749;28;20918;-77
2021/01/14 05:41:11;;;;;;;6.40;2.93;;;0.80;99.90;;;;;;5032576;28;20400;-77
2021/01/14 05:43:51;;;;;;;6.00;2.77;;;0.90;99.90;;;;;;5033987;28;20413;-77
2021/01/14 05:46:35;;;;;;;5.07;2.03;;;0.90;99.90;;;;;;5032580;28;20983;-77
2021/01/14 05:49:03;;;;;;;8.03;2.80;;;0.90;99.90;;;;;;5028047;28;20388;-78
2021/01/14 05:51:33;;;;;;;6.27;2.63;;;0.90;99.90;;;;;;5029875;28;20392;-78
2021/01/14 05:54:03;;;;;;;4.90;2.70;;;0.80;99.90;;;;;;5016763;28;20887;-78
2021/01/14 05:56:49;;;;;;;6.03;2.70;;;0.80;99.90;;;;;;5016157;28;20872;-78
2021/01/14 05:59:16;;;;;;;6.60;2.80;;;0.80;99.90;;;;;;5026676;28;20929;-77
2021/01/14 06:01:59;;;;;;;7.07;2.53;;;0.80;99.90;;;;;;5033547;28;20395;-78
2021/01/14 06:04:26;;;;;;;3.67;2.80;;;0.80;99.90;;;;;;5045554;28;20401;-77
2021/01/14 06:06:54;;;;;;;5.10;2.80;;;0.80;99.90;;;;;;5018358;28;20402;-77
2021/01/14 06:09:22;;;;;;;5.90;3.03;;;0.80;99.90;;;;;;5031591;28;20404;-77
2021/01/14 06:11:49;;;;;;;4.80;2.30;;;0.80;99.90;;;;;;5031805;28;20424;-78
2021/01/14 06:14:24;;;;;;;8.80;3.47;;;0.70;99.90;;;;;;5014973;28;20483;-78
2021/01/14 06:16:51;;;;;;;6.03;3.30;;;0.60;99.90;;;;;;5029704;28;20411;-78
2021/01/14 06:19:17;;;;;;;6.57;2.60;;;0.60;99.90;;;;;;5030783;28;21123;-77
2021/01/14 06:21:47;;;;;;;7.53;2.20;;;0.60;99.90;;;;;;5007480;28;20421;-77
2021/01/14 06:24:37;;;;;;;8.80;2.90;;;0.60;99.90;;;;;;5033119;28;20397;-77
2021/01/14 06:27:05;;;;;;;3.37;2.20;;;0.60;99.90;;;;;;5048777;28;20438;-77
2021/01/14 06:29:42;;;;;;;12.27;2.57;;;0.60;99.90;;;;;;5029721;28;20922;-76
2021/01/14 06:32:12;;;;;;;6.20;2.80;;;0.60;99.90;;;;;;5036989;28;20429;-76
2021/01/14 06:34:40;;;;;;;6.23;2.77;;;0.60;99.90;;;;;;5039930;28;20439;-77
2021/01/14 06:37:22;;;;;;;4.50;2.27;;;0.50;99.90;;;;;;5021976;28;20419;-77
2021/01/14 06:39:56;;;;;;;8.27;2.87;;;0.50;99.90;;;;;;5020267;28;20410;-76
2021/01/14 06:42:30;;;;;;;5.03;2.80;;;0.40;99.90;;;;;;5005064;28;20417;-76
2021/01/14 06:44:59;;;;;;;3.97;2.87;;;0.40;99.90;;;;;;5024184;28;20423;-76
2021/01/14 06:47:34;;;;;;;7.40;2.80;;;0.30;99.90;;;;;;5015889;28;20416;-76
2021/01/14 06:50:17;;;;;;;3.17;2.87;;;0.30;99.90;;;;;;5014555;28;20401;-76
2021/01/14 06:52:49;;;;;;;5.87;2.80;;;0.30;99.90;;;;;;5030038;28;20386;-76
2021/01/14 06:55:17;;;;;;;10.13;3.00;;;0.30;99.90;;;;;;5042349;28;20398;-77
2021/01/14 06:58:01;;;;;;;11.57;3.30;;;0.20;99.90;;;;;;5002567;28;20442;-77
2021/01/14 07:00:29;;;;;;;4.93;3.27;;;0.20;99.90;;;;;;5018507;28;20456;-77
2021/01/14 07:03:21;;;;;;;3.70;2.87;;;0.10;99.90;;;;;;4992459;28;20506;-77
2021/01/14 07:05:53;;;;;;;3.70;2.40;;;0.10;99.90;;;;;;5023569;28;20424;-77
2021/01/14 07:08:38;;;;;;;5.43;2.77;;;0.10;99.90;;;;;;5021480;28;20384;-77
2021/01/14 07:11:09;;;;;;;8.60;3.33;;;0.20;99.90;;;;;;5018881;28;20893;-77
2021/01/14 07:13:40;;;;;;;7.30;3.77;;;0.20;99.90;;;;;;5019474;28;20451;-77
2021/01/14 07:16:08;;;;;;;8.50;3.43;;;0.10;99.90;;;;;;5034121;28;20442;-77
2021/01/14 07:18:36;;;;;;;5.17;3.33;;;0.00;99.90;;;;;;5027959;28;20452;-78
2021/01/14 07:21:37;;;;;;;7.60;3.93;;;-0.10;99.90;;;;;;5008244;28;20495;-78
2021/01/14 07:24:28;;;;;;;8.23;3.40;;;-0.10;99.90;;;;;;5005761;28;20907;-78
2021/01/14 08:07:23;;;;;;;7.43;3.93;;;1.20;99.90;;;;;;5025340;28;20989;-77
2021/01/14 08:09:49;;;;;;;8.93;5.40;;;1.30;99.90;;;;;;5023729;28;20417;-76
2021/01/14 08:12:15;;;;;;;14.40;6.10;;;1.30;99.90;;;;;;5009005;28;20509;-77
2021/01/14 08:14:41;;;;;;;17.10;7.20;;;1.40;99.90;;;;;;5009529;28;20783;-77
2021/01/14 08:17:24;;;;;;;15.10;5.90;;;1.50;99.90;;;;;;4989578;28;20207;-78
2021/01/14 08:19:50;;;;;;;14.40;5.20;;;1.60;99.90;;;;;;5034601;28;20531;-77
2021/01/14 08:22:16;;;;;;;11.53;5.63;;;1.70;99.90;;;;;;5024229;28;20400;-77
2021/01/14 08:32:20;;;;;;;11.63;8.53;;;1.90;99.90;;;;;;5038959;28;21162;-77
2021/01/14 08:34:49;;;;;;;7.93;5.00;;;2.00;99.90;;;;;;5025966;28;20430;-76
2021/01/14 08:37:31;;;;;;;10.10;5.37;;;2.00;99.90;;;;;;5021820;28;20418;-76
2021/01/14 08:40:03;;;;;;;9.27;5.50;;;2.00;99.90;;;;;;5040487;28;20849;-77
2021/01/14 08:42:35;;;;;;;14.33;6.47;;;2.00;99.90;;;;;;5027338;28;20457;-76
2021/01/14 08:45:07;;;;;;;13.53;5.83;;;2.00;99.90;;;;;;5027128;28;20937;-77
2021/01/14 08:47:55;;;;;;;9.63;5.40;;;2.10;99.90;;;;;;5028104;28;20428;-76
2021/01/14 08:50:42;;;;;;;13.50;5.97;;;2.00;99.90;;;;;;5033019;28;20400;-76
2021/01/14 08:53:18;;;;;;;10.67;5.03;;;2.10;99.90;;;;;;5046991;28;20383;-76
2021/01/14 08:55:51;;;;;;;8.73;4.93;;;2.10;99.90;;;;;;5032082;28;20445;-76
2021/01/14 08:58:38;;;;;;;8.23;4.90;;;2.10;99.90;;;;;;5047354;28;20516;-77
2021/01/14 09:01:06;;;;;;;8.07;5.80;;;2.10;99.90;;;;;;5028863;28;20455;-76
2021/01/14 09:03:34;;;;;;;6.87;4.77;;;2.20;99.90;;;;;;5031450;28;20383;-76
2021/01/14 09:05:59;;;;;;;6.27;5.67;;;2.20;99.90;;;;;;5031577;28;20431;-76
2021/01/14 09:08:25;;;;;;;7.03;5.70;;;2.30;99.90;;;;;;5028849;28;20796;-77
2021/01/14 09:10:53;;;;;;;10.10;7.23;;;2.20;99.90;;;;;;5046930;28;20432;-77
2021/01/14 09:13:24;;;;;;;11.47;8.40;;;2.20;99.90;;;;;;5012806;28;20230;-77
2021/01/14 09:15:53;;;;;;;11.47;8.13;;;2.40;99.90;;;;;;5034520;28;20474;-76
2021/01/14 09:18:48;;;;;;;14.57;8.80;;;2.50;99.90;;;;;;5011848;28;20525;-77
2021/01/14 09:21:14;;;;;;;14.17;8.83;;;2.70;99.90;;;;;;5020503;28;20859;-77
2021/01/14 09:23:40;;;;;;;14.57;9.63;;;2.80;99.90;;;;;;5029949;28;20422;-77
2021/01/14 09:26:18;;;;;;;19.50;10.00;;;3.00;99.90;;;;;;5031082;28;20345;-77
2021/01/14 09:28:50;;;;;;;15.43;8.67;;;3.30;99.90;;;;;;5029809;28;20210;-77
2021/01/14 09:31:16;;;;;;;14.00;8.30;;;3.50;99.90;;;;;;5027245;28;20410;-77
2021/01/14 09:33:44;;;;;;;18.33;6.97;;;3.60;99.90;;;;;;5014041;28;20418;-77
2021/01/14 09:36:14;;;;;;;11.07;8.10;;;3.70;99.90;;;;;;5047559;28;20410;-78
2021/01/14 09:38:51;;;;;;;21.10;8.17;;;3.70;99.90;;;;;;5026266;28;20491;-77
2021/01/14 09:41:28;;;;;;;13.40;7.57;;;4.00;99.90;;;;;;5032691;28;20750;-77
2021/01/14 09:44:14;;;;;;;17.43;8.07;;;4.50;99.90;;;;;;5033779;28;20415;-77
2021/01/14 09:46:45;;;;;;;16.00;8.73;;;4.80;99.90;;;;;;5007816;28;20588;-77
2021/01/14 09:49:12;;;;;;;18.80;7.27;;;4.80;99.90;;;;;;5017240;28;20445;-77
2021/01/14 09:51:39;;;;;;;16.60;7.80;;;5.00;99.90;;;;;;5001292;28;20498;-78
2021/01/14 09:54:06;;;;;;;10.00;6.87;;;5.40;99.90;;;;;;4996434;28;21357;-77
2021/01/14 09:56:40;;;;;;;11.40;6.10;;;6.10;99.90;;;;;;5025785;28;20454;-76
2021/01/14 09:59:27;;;;;;;11.20;6.50;;;7.20;99.90;;;;;;5025054;28;20489;-76
2021/01/14 10:02:20;;;;;;;10.40;5.13;;;8.80;99.90;;;;;;5033016;28;20862;-77
2021/01/14 10:04:54;;;;;;;11.77;6.13;;;10.50;99.90;;;;;;5036935;28;20570;-77
2021/01/14 10:07:21;;;;;;;11.00;5.87;;;12.00;96.20;;;;;;5023754;28;20409;-77
2021/01/14 10:09:49;;;;;;;6.00;5.20;;;12.30;85.40;;;;;;5022557;28;21258;-77
2021/01/14 10:12:16;;;;;;;7.27;5.03;;;11.60;86.40;;;;;;5023116;28;20402;-78
2021/01/14 10:14:42;;;;;;;9.20;5.03;;;10.60;88.40;;;;;;5031045;28;20543;-77
2021/01/14 10:17:12;;;;;;;8.80;5.80;;;9.90;92.20;;;;;;4998551;28;20901;-76
2021/01/14 10:19:47;;;;;;;5.10;4.57;;;8.70;95.00;;;;;;5027044;28;20504;-77
2021/01/14 10:22:13;;;;;;;9.90;4.70;;;8.20;98.60;;;;;;5051169;28;20894;-75
2021/01/14 10:24:39;;;;;;;8.30;3.97;;;9.20;99.20;;;;;;5030010;28;20424;-76
2021/01/14 10:27:19;;;;;;;5.00;3.67;;;10.40;94.70;;;;;;5032622;28;20428;-77
2021/01/14 10:29:46;;;;;;;4.37;3.93;;;10.60;91.30;;;;;;5024891;28;20241;-77
2021/01/14 10:32:16;;;;;;;6.10;4.00;;;11.70;90.10;;;;;;5030757;28;20429;-77
2021/01/14 10:34:50;;;;;;;5.90;4.63;;;11.40;81.40;;;;;;5030161;28;20511;-77
2021/01/14 10:37:17;;;;;;;7.03;5.10;;;10.90;83.30;;;;;;5030611;28;20413;-77
2021/01/14 10:39:43;;;;;;;8.67;5.70;;;10.80;86.50;;;;;;5025927;28;20432;-77
2021/01/14 10:42:37;;;;;;;5.43;4.33;;;10.10;90.40;;;;;;5030692;28;20417;-77
2021/01/14 10:45:11;;;;;;;9.87;5.33;;;8.10;94.20;;;;;;5030669;28;20219;-76
2021/01/14 10:47:39;;;;;;;4.77;4.37;;;7.70;98.70;;;;;;5026426;28;20432;-76
2021/01/14 10:50:28;;;;;;;5.77;4.23;;;8.70;99.40;;;;;;5025845;28;20847;-76
2021/01/14 10:53:03;;;;;;;7.70;3.23;;;8.70;98.40;;;;;;5022873;28;20557;-76
2021/01/14 10:55:30;;;;;;;8.57;4.27;;;8.50;98.00;;;;;;5027438;28;20481;-76
2021/01/14 10:57:58;;;;;;;4.77;4.27;;;10.00;97.60;;;;;;5043174;28;20467;-76
2021/01/14 11:00:26;;;;;;;5.90;4.67;;;13.50;84.00;;;;;;5025928;28;20460;-76
2021/01/14 11:02:59;;;;;;;5.20;4.03;;;;;;;;;;5037778;28;20412;-77
2021/01/14 11:05:46;;;;;;;4.33;3.93;;;;;;;;;;5027487;28;21009;-76
2021/01/14 11:08:16;;;;;;;6.00;3.67;;;;;;;;;;5033262;28;20520;-76
2021/01/14 11:10:43;;;;;;;9.10;4.57;;;;;;;;;;5018817;28;20443;-76
2021/01/14 11:13:10;;;;;;;4.70;4.30;;;;;;;;;;5047968;28;20555;-77
2021/01/14 11:15:36;;;;;;;10.33;5.60;;;;;;;;;;5029113;28;20495;-77
2021/01/14 11:18:03;;;;;;;5.20;3.63;;;;;;;;;;5040688;28;20413;-76
2021/01/14 11:20:29;;;;;;;8.73;4.60;;;;;;;;;;5030171;28;20949;-77
2021/01/14 11:22:55;;;;;;;7.27;4.30;;;;;;;;;;5038509;28;20491;-76
2021/01/14 11:25:21;;;;;;;10.53;5.67;;;;;;;;;;5031044;28;21625;-76
2021/01/14 11:27:47;;;;;;;4.10;3.70;;;;;;;;;;5032854;28;21234;-77
2021/01/14 11:30:14;;;;;;;5.73;3.97;;;;;;;;;;5032352;28;20510;-77
2021/01/14 11:32:40;;;;;;;6.53;4.20;;;;;;;;;;5030718;28;21251;-77
2021/01/14 11:35:07;;;;;;;6.63;4.40;;;13.50;66.10;;;;;;5025424;28;20486;-77
2021/01/14 11:37:32;;;;;;;10.83;4.03;;;5.80;99.90;;;;;;5012009;28;20426;-77
2021/01/14 11:39:58;;;;;;;8.10;4.43;;;7.60;99.90;;;;;;5040410;28;20519;-77
2021/01/14 11:42:28;;;;;;;6.27;3.63;;;;;;;;;;5015237;28;20238;-77
2021/01/14 11:44:54;;;;;;;3.57;2.93;;;;;;;;;;5025090;28;20218;-77
2021/01/14 11:47:20;;;;;;;4.97;3.53;;;;;;;;;;5032200;28;20741;-78
2021/01/14 11:49:46;;;;;;;8.97;4.50;;;;;;;;;;5025660;28;20424;-77
2021/01/14 11:52:14;;;;;;;8.27;3.63;;;;;;;;;;5027625;28;20400;-77
2021/01/14 11:54:40;;;;;;;4.83;3.73;;;;;;;;;;5028904;28;21274;-77
2021/01/14 11:57:06;;;;;;;4.67;3.13;;;;;;;;;;5047659;28;20810;-76
2021/01/14 11:59:32;;;;;;;5.83;3.33;;;;;;;;;;5042600;28;20435;-76
2021/01/14 12:01:58;;;;;;;6.17;3.97;;;;;;;;;;5027007;28;20423;-76
2021/01/14 12:04:24;;;;;;;4.47;3.33;;;;;;;;;;5040750;28;20422;-76
2021/01/14 12:06:51;;;;;;;7.43;3.33;;;;;;;;;;5048778;28;20419;-76
2021/01/14 12:09:17;;;;;;;4.73;3.30;;;;;;;;;;5039518;28;21142;-76
2021/01/14 12:11:43;;;;;;;3.33;3.10;;;;;;;;;;5041915;28;21156;-77
2021/01/14 12:14:09;;;;;;;4.57;3.50;;;;;;;;;;5044300;28;20454;-77
2021/01/14 12:16:36;;;;;;;5.87;3.47;;;;;;;;;;4991106;28;20464;-77
2021/01/14 12:19:02;;;;;;;3.63;3.33;;;;;;;;;;5042378;28;20397;-76
2021/01/14 12:21:28;;;;;;;4.00;3.00;;;;;;;;;;5031360;28;20455;-76
2021/01/14 12:23:54;;;;;;;4.37;2.70;;;;;;;;;;5035362;28;20409;-76
2021/01/14 12:26:20;;;;;;;4.60;3.07;;;9.30;99.90;;;;;;5036695;28;20415;-76
2021/01/14 12:28:46;;;;;;;3.10;2.90;;;;;;;;;;5029407;28;20790;-76
2021/01/14 12:31:12;;;;;;;4.47;3.10;;;8.50;99.30;;;;;;5030064;28;20206;-76
2021/01/14 12:33:38;;;;;;;5.63;3.53;;;;;;;;;;5029764;28;20746;-75
2021/01/14 12:36:05;;;;;;;4.83;3.63;;;;;;;;;;5026303;28;20470;-76
2021/01/14 12:38:32;;;;;;;9.13;4.10;;;;;;;;;;5034176;28;20840;-76
2021/01/14 12:40:58;;;;;;;4.63;3.57;;;;;;;;;;5050248;28;20922;-76
2021/01/14 12:43:24;;;;;;;6.03;3.90;;;6.50;99.90;;;;;;5043525;28;20412;-75
2021/01/14 12:45:53;;;;;;;3.70;3.40;;;6.00;99.90;;;;;;5029073;28;20407;-76
2021/01/14 12:48:19;;;;;;;6.07;3.63;;;;;;;;;;5012671;28;20442;-76
2021/01/14 12:50:46;;;;;;;5.93;3.50;;;;;;;;;;5029861;28;20412;-76
2021/01/14 12:53:12;;;;;;;6.37;3.90;;;;;;;;;;5046274;28;20513;-77
2021/01/14 12:55:38;;;;;;;5.17;3.70;;;;;;;;;;5030417;28;20468;-76
2021/01/14 12:58:05;;;;;;;7.33;4.30;;;;;;;;;;5031485;28;21159;-76
2021/01/14 13:00:32;;;;;;;5.17;3.97;;;;;;;;;;5028974;28;20409;-76
2021/01/14 13:02:59;;;;;;;4.43;3.73;;;;;;;;;;5019138;28;20431;-77
2021/01/14 13:05:25;;;;;;;7.60;4.50;;;;;;;;;;5046322;28;20430;-77
2021/01/14 13:07:51;;;;;;;7.30;4.63;;;;;;;;;;5030434;28;20432;-77
2021/01/14 13:10:17;;;;;;;8.93;4.30;;;;;;;;;;5031976;28;20433;-77
2021/01/14 13:12:43;;;;;;;5.73;4.33;;;;;;;;;;5048455;28;20410;-77
2021/01/14 13:15:09;;;;;;;4.77;4.20;;;10.00;97.60;;;;;;4999358;28;20414;-77
2021/01/14 13:17:34;;;;;;;7.23;4.97;;;5.70;99.90;;;;;;5032183;28;20435;-76
2021/01/14 13:20:00;;;;;;;8.60;4.80;;;5.10;99.90;;;;;;5012996;28;20221;-76
2021/01/14 13:22:26;;;;;;;5.47;3.77;;;5.00;99.90;;;;;;5028185;28;20788;-77
2021/01/14 13:24:52;;;;;;;7.20;3.63;;;4.50;99.90;;;;;;5022126;28;20228;-77
2021/01/14 13:27:18;;;;;;;6.20;4.63;;;4.30;99.90;;;;;;5028525;28;20409;-77
2021/01/14 13:29:43;;;;;;;7.00;4.20;;;4.40;99.90;;;;;;5026835;28;20464;-77
2021/01/14 13:32:09;;;;;;;5.77;4.47;;;4.50;99.90;;;;;;5013290;28;20729;-77
2021/01/14 13:34:35;;;;;;;10.57;5.43;;;4.40;99.90;;;;;;5027044;28;20232;-77
2021/01/14 13:37:05;;;;;;;5.50;5.00;;;4.40;99.90;;;;;;5031732;28;20550;-77
2021/01/14 13:39:32;;;;;;;6.13;4.77;;;4.40;99.90;;;;;;5041373;28;20582;-77
2021/01/14 13:41:57;;;;;;;6.50;5.33;;;4.50;99.90;;;;;;5031225;28;20387;-77
2021/01/14 13:44:24;;;;;;;8.07;4.50;;;4.40;99.90;;;;;;5027450;28;20434;-76
2021/01/14 13:46:50;;;;;;;5.17;4.60;;;4.30;99.90;;;;;;5031103;28;20297;-77
2021/01/14 13:49:19;;;;;;;5.20;4.63;;;4.40;99.90;;;;;;5044686;28;20419;-77
2021/01/14 13:51:47;;;;;;;7.07;5.13;;;4.50;99.90;;;;;;5014821;28;21166;-77
2021/01/14 13:54:13;;;;;;;8.50;4.83;;;4.40;99.90;;;;;;5043471;28;20857;-77
2021/01/14 13:56:39;;;;;;;4.93;4.07;;;4.40;99.90;;;;;;5032564;28;22480;-77
2021/01/14 13:59:05;;;;;;;4.83;4.43;;;4.60;99.90;;;;;;5024721;28;20527;-77
2021/01/14 14:01:32;;;;;;;10.33;4.60;;;4.60;99.90;;;;;;5029601;28;20225;-76
2021/01/14 14:03:59;;;;;;;6.77;4.37;;;4.50;99.90;;;;;;5041990;28;20412;-76
2021/01/14 14:06:42;;;;;;;5.90;4.60;;;4.20;99.90;;;;;;5030464;28;20461;-76
2021/01/14 14:09:16;;;;;;;9.00;4.90;;;4.00;99.90;;;;;;5025534;28;20425;-76